SAS63J EKCH-EDDL
Flight info
| Callsign | SAS63J |
|---|---|
| Flight time | N/A |
| Altitude | 34000 |
| Route | NEXEN T503 GIMRU DCT MICOS DCT KEGAB DCT DENOL/N0409F260 T851 HALME HALME1A |
| Aircraft | E195/M-SDE3GILORVW/S |
Departure
| Time | N/A |
|---|---|
| Airport | Copenhagen Kastrup Airport (EKCH) |
Arrival
| Time | 2026-05-05 12:50 |
|---|---|
| Airport | Düsseldorf Airport (EDDL) |
| Time | Latitude | Longitude | Altitude | Speed | Heading |
|---|---|---|---|---|---|
| 2026-05-05 12:10 | 53.94027 | 10.57671 | 33958 ft | 425 kts | 218° |
| 2026-05-05 12:10 | 53.89183 | 10.52059 | 33955 ft | 423 kts | 218° |
| 2026-05-05 12:11 | 53.84302 | 10.46416 | 33960 ft | 422 kts | 218° |
| 2026-05-05 12:11 | 53.79428 | 10.40799 | 33953 ft | 422 kts | 218° |
| 2026-05-05 12:12 | 53.74610 | 10.35263 | 33956 ft | 422 kts | 218° |
| 2026-05-05 12:12 | 53.69735 | 10.29677 | 33959 ft | 422 kts | 217° |
| 2026-05-05 12:13 | 53.64917 | 10.24172 | 33960 ft | 421 kts | 217° |
| 2026-05-05 12:13 | 53.60062 | 10.18641 | 33961 ft | 421 kts | 218° |
| 2026-05-05 12:14 | 53.55219 | 10.13138 | 33965 ft | 419 kts | 217° |
| 2026-05-05 12:14 | 53.50399 | 10.07676 | 33953 ft | 419 kts | 217° |
| 2026-05-05 12:15 | 53.45573 | 10.02224 | 33962 ft | 419 kts | 217° |
| 2026-05-05 12:15 | 53.40717 | 9.96752 | 33957 ft | 418 kts | 217° |
| 2026-05-05 12:16 | 53.35889 | 9.91329 | 33954 ft | 418 kts | 217° |
| 2026-05-05 12:16 | 53.31087 | 9.85948 | 33956 ft | 417 kts | 218° |
| 2026-05-05 12:17 | 53.26293 | 9.80591 | 33943 ft | 417 kts | 217° |
| 2026-05-05 12:17 | 53.21456 | 9.75201 | 33931 ft | 414 kts | 218° |
| 2026-05-05 12:18 | 53.16696 | 9.69911 | 33927 ft | 414 kts | 217° |
| 2026-05-05 12:18 | 53.11904 | 9.64601 | 33926 ft | 414 kts | 218° |
| 2026-05-05 12:19 | 53.07133 | 9.59328 | 33920 ft | 412 kts | 217° |
| 2026-05-05 12:19 | 53.02361 | 9.54068 | 33923 ft | 412 kts | 217° |
| 2026-05-05 12:20 | 52.97581 | 9.48813 | 33923 ft | 411 kts | 217° |
| 2026-05-05 12:20 | 52.92818 | 9.43591 | 33917 ft | 413 kts | 217° |
| 2026-05-05 12:21 | 52.87723 | 9.39111 | 33920 ft | 416 kts | 211° |
| 2026-05-05 12:21 | 52.82580 | 9.34886 | 33918 ft | 414 kts | 210° |
| 2026-05-05 12:22 | 52.77391 | 9.30636 | 33923 ft | 414 kts | 210° |
| 2026-05-05 12:22 | 52.72230 | 9.26423 | 33924 ft | 414 kts | 210° |
| 2026-05-05 12:23 | 52.67098 | 9.22243 | 33931 ft | 413 kts | 210° |
| 2026-05-05 12:23 | 52.61980 | 9.18086 | 33933 ft | 413 kts | 210° |
| 2026-05-05 12:24 | 52.59411 | 9.16006 | 33923 ft | 401 kts | 210° |
| 2026-05-05 12:24 | 52.56962 | 9.14022 | 33930 ft | 395 kts | 210° |
| 2026-05-05 12:24 | 52.52029 | 9.10034 | 33919 ft | 397 kts | 210° |
| 2026-05-05 12:25 | 52.49538 | 9.08025 | 33494 ft | 400 kts | 210° |
| 2026-05-05 12:25 | 52.47057 | 9.06026 | 33072 ft | 400 kts | 210° |
| 2026-05-05 12:25 | 52.44567 | 9.04023 | 32630 ft | 400 kts | 210° |
| 2026-05-05 12:25 | 52.42084 | 9.02028 | 32191 ft | 403 kts | 209° |
| 2026-05-05 12:26 | 52.39558 | 9.00001 | 31741 ft | 405 kts | 209° |
| 2026-05-05 12:26 | 52.37036 | 8.97979 | 31295 ft | 407 kts | 209° |
| 2026-05-05 12:26 | 52.34492 | 8.95944 | 30843 ft | 408 kts | 209° |
| 2026-05-05 12:26 | 52.31975 | 8.93932 | 30390 ft | 406 kts | 208° |
| 2026-05-05 12:27 | 52.29449 | 8.91915 | 29937 ft | 402 kts | 208° |
| 2026-05-05 12:27 | 52.26939 | 8.89914 | 29492 ft | 400 kts | 208° |
| 2026-05-05 12:27 | 52.24460 | 8.87940 | 29051 ft | 398 kts | 208° |
| 2026-05-05 12:27 | 52.21993 | 8.85977 | 28613 ft | 397 kts | 208° |
| 2026-05-05 12:28 | 52.19506 | 8.84002 | 28172 ft | 396 kts | 208° |
| 2026-05-05 12:28 | 52.17054 | 8.82057 | 27739 ft | 394 kts | 208° |
| 2026-05-05 12:28 | 52.14613 | 8.80122 | 27304 ft | 392 kts | 208° |
| 2026-05-05 12:28 | 52.12165 | 8.78184 | 26866 ft | 391 kts | 208° |
| 2026-05-05 12:29 | 52.09739 | 8.76266 | 26431 ft | 389 kts | 207° |
| 2026-05-05 12:29 | 52.07296 | 8.74338 | 26002 ft | 388 kts | 207° |
| 2026-05-05 12:29 | 52.04860 | 8.72417 | 25562 ft | 387 kts | 207° |
| 2026-05-05 12:29 | 52.02484 | 8.70546 | 25140 ft | 384 kts | 207° |
| 2026-05-05 12:30 | 52.00102 | 8.68533 | 24700 ft | 381 kts | 217° |
| 2026-05-05 12:30 | 51.98319 | 8.65434 | 24318 ft | 380 kts | 239° |
| 2026-05-05 12:30 | 51.97324 | 8.61471 | 23850 ft | 380 kts | 251° |
| 2026-05-05 12:30 | 51.96553 | 8.57408 | 23409 ft | 379 kts | 252° |
| 2026-05-05 12:31 | 51.95801 | 8.53350 | 22990 ft | 378 kts | 252° |
| 2026-05-05 12:31 | 51.95055 | 8.49297 | 22581 ft | 377 kts | 253° |
| 2026-05-05 12:31 | 51.94304 | 8.45207 | 22159 ft | 375 kts | 253° |
| 2026-05-05 12:31 | 51.93568 | 8.41207 | 21754 ft | 374 kts | 253° |
| 2026-05-05 12:32 | 51.92831 | 8.37204 | 21329 ft | 372 kts | 253° |
| 2026-05-05 12:32 | 51.92088 | 8.33180 | 20921 ft | 370 kts | 252° |
| 2026-05-05 12:32 | 51.91353 | 8.29210 | 20516 ft | 369 kts | 252° |
| 2026-05-05 12:32 | 51.90615 | 8.25226 | 20109 ft | 368 kts | 252° |
| 2026-05-05 12:33 | 51.89872 | 8.21230 | 19713 ft | 368 kts | 252° |
| 2026-05-05 12:33 | 51.89136 | 8.17279 | 19305 ft | 367 kts | 252° |
| 2026-05-05 12:33 | 51.88408 | 8.13377 | 18892 ft | 366 kts | 252° |
| 2026-05-05 12:33 | 51.87669 | 8.09426 | 18501 ft | 364 kts | 252° |
| 2026-05-05 12:34 | 51.86943 | 8.05548 | 18091 ft | 363 kts | 252° |
| 2026-05-05 12:34 | 51.86214 | 8.01666 | 17702 ft | 361 kts | 252° |
| 2026-05-05 12:34 | 51.85482 | 7.97779 | 17326 ft | 359 kts | 252° |
| 2026-05-05 12:34 | 51.84764 | 7.93967 | 16885 ft | 357 kts | 252° |
| 2026-05-05 12:35 | 51.84042 | 7.90146 | 16529 ft | 354 kts | 252° |
| 2026-05-05 12:35 | 51.83325 | 7.86361 | 16128 ft | 352 kts | 252° |
| 2026-05-05 12:35 | 51.82609 | 7.82585 | 15721 ft | 351 kts | 252° |
| 2026-05-05 12:35 | 51.81899 | 7.78852 | 15368 ft | 349 kts | 252° |
| 2026-05-05 12:36 | 51.81186 | 7.75106 | 14968 ft | 348 kts | 252° |
| 2026-05-05 12:36 | 51.80474 | 7.71377 | 14576 ft | 346 kts | 252° |
| 2026-05-05 12:36 | 51.79775 | 7.67723 | 14211 ft | 346 kts | 252° |
| 2026-05-05 12:36 | 51.79062 | 7.64000 | 13810 ft | 344 kts | 252° |
| 2026-05-05 12:37 | 51.78354 | 7.60311 | 13447 ft | 342 kts | 252° |
| 2026-05-05 12:37 | 51.77650 | 7.56650 | 13050 ft | 340 kts | 252° |
| 2026-05-05 12:37 | 51.76952 | 7.53027 | 12688 ft | 337 kts | 252° |
| 2026-05-05 12:37 | 51.76259 | 7.49441 | 12331 ft | 336 kts | 252° |
| 2026-05-05 12:38 | 51.75571 | 7.45882 | 11949 ft | 334 kts | 252° |
| 2026-05-05 12:38 | 51.74887 | 7.42354 | 11596 ft | 331 kts | 252° |
| 2026-05-05 12:38 | 51.74208 | 7.38854 | 11207 ft | 324 kts | 252° |
| 2026-05-05 12:38 | 51.73538 | 7.35409 | 10866 ft | 315 kts | 252° |
| 2026-05-05 12:39 | 51.72897 | 7.32121 | 10518 ft | 306 kts | 251° |
| 2026-05-05 12:39 | 51.72272 | 7.28921 | 10200 ft | 298 kts | 251° |
| 2026-05-05 12:39 | 51.71657 | 7.25774 | 9871 ft | 290 kts | 251° |
| 2026-05-05 12:39 | 51.71055 | 7.22697 | 9563 ft | 285 kts | 251° |
| 2026-05-05 12:40 | 51.70131 | 7.19957 | 9264 ft | 281 kts | 223° |
| 2026-05-05 12:40 | 51.68580 | 7.18048 | 8961 ft | 282 kts | 213° |
| 2026-05-05 12:40 | 51.66946 | 7.16285 | 8627 ft | 283 kts | 213° |
| 2026-05-05 12:40 | 51.65317 | 7.14554 | 8309 ft | 282 kts | 212° |
| 2026-05-05 12:41 | 51.63663 | 7.12812 | 7996 ft | 281 kts | 212° |
| 2026-05-05 12:41 | 51.62043 | 7.11112 | 7693 ft | 280 kts | 212° |
| 2026-05-05 12:41 | 51.60430 | 7.09422 | 7371 ft | 274 kts | 212° |
| 2026-05-05 12:41 | 51.58841 | 7.07761 | 7058 ft | 267 kts | 212° |
| 2026-05-05 12:42 | 51.57320 | 7.06173 | 6766 ft | 261 kts | 212° |
| 2026-05-05 12:42 | 51.55813 | 7.04600 | 6491 ft | 255 kts | 212° |
| 2026-05-05 12:42 | 51.54345 | 7.03070 | 6203 ft | 249 kts | 213° |
| 2026-05-05 12:42 | 51.52912 | 7.01577 | 5878 ft | 241 kts | 212° |
| 2026-05-05 12:43 | 51.51542 | 7.00151 | 5641 ft | 226 kts | 212° |
| 2026-05-05 12:43 | 51.50267 | 6.98829 | 5465 ft | 216 kts | 211° |
| 2026-05-05 12:43 | 51.48844 | 6.98339 | 5254 ft | 207 kts | 166° |
| 2026-05-05 12:43 | 51.47607 | 6.99331 | 5034 ft | 200 kts | 145° |
| 2026-05-05 12:44 | 51.46475 | 7.00610 | 4733 ft | 197 kts | 143° |
| 2026-05-05 12:44 | 51.45377 | 7.01884 | 4498 ft | 195 kts | 142° |
| 2026-05-05 12:44 | 51.44288 | 7.03169 | 4276 ft | 193 kts | 141° |
| 2026-05-05 12:44 | 51.43146 | 7.04249 | 4052 ft | 196 kts | 167° |
| 2026-05-05 12:45 | 51.41824 | 7.03950 | 3878 ft | 198 kts | 211° |
| 2026-05-05 12:45 | 51.40876 | 7.02413 | 3619 ft | 191 kts | 233° |
| 2026-05-05 12:45 | 51.40096 | 7.00771 | 3355 ft | 177 kts | 233° |
| 2026-05-05 12:45 | 51.39387 | 6.99275 | 3190 ft | 156 kts | 233° |
| 2026-05-05 12:46 | 51.38757 | 6.97948 | 2993 ft | 146 kts | 234° |
| 2026-05-05 12:46 | 51.38150 | 6.96666 | 2907 ft | 145 kts | 234° |
| 2026-05-05 12:46 | 51.37552 | 6.95354 | 2802 ft | 148 kts | 234° |
| 2026-05-05 12:46 | 51.36923 | 6.94027 | 2611 ft | 149 kts | 234° |
| 2026-05-05 12:47 | 51.36298 | 6.92710 | 2415 ft | 150 kts | 235° |
| 2026-05-05 12:47 | 51.35672 | 6.91390 | 2219 ft | 149 kts | 235° |
| 2026-05-05 12:47 | 51.35043 | 6.90067 | 2015 ft | 149 kts | 235° |
| 2026-05-05 12:47 | 51.34422 | 6.88759 | 1808 ft | 148 kts | 236° |
| 2026-05-05 12:48 | 51.33801 | 6.87452 | 1604 ft | 148 kts | 235° |
| 2026-05-05 12:48 | 51.33180 | 6.86148 | 1403 ft | 147 kts | 235° |
| 2026-05-05 12:48 | 51.32564 | 6.84853 | 1200 ft | 146 kts | 235° |
| 2026-05-05 12:48 | 51.31945 | 6.83577 | 978 ft | 145 kts | 234° |
| 2026-05-05 12:49 | 51.31327 | 6.82296 | 732 ft | 143 kts | 236° |
| 2026-05-05 12:49 | 51.30725 | 6.81052 | 542 ft | 141 kts | 236° |
| 2026-05-05 12:49 | 51.30129 | 6.79780 | 407 ft | 141 kts | 236° |
| 2026-05-05 12:49 | 51.29547 | 6.78546 | 252 ft | 141 kts | 236° |
| 2026-05-05 12:50 | 51.28961 | 6.77305 | 154 ft | 133 kts | 235° |
| 2026-05-05 12:50 | 51.28496 | 6.76318 | 153 ft | 86 kts | 233° |
| 2026-05-05 12:50 | 51.28225 | 6.75753 | 153 ft | 46 kts | 233° |
| 2026-05-05 12:50 | 51.28102 | 6.75525 | 153 ft | 21 kts | 211° |
| 2026-05-05 12:51 | 51.27970 | 6.75545 | 153 ft | 7 kts | 153° |
| 2026-05-05 12:51 | 51.27948 | 6.75563 | 153 ft | 0 kts | 153° |
| 2026-05-05 12:51 | 51.27946 | 6.75566 | 153 ft | 1 kts | 153° |
| 2026-05-05 12:52 | 51.27940 | 6.75571 | 153 ft | 0 kts | 153° |
| 2026-05-05 12:52 | 51.27938 | 6.75573 | 153 ft | 0 kts | 138° |
| 2026-05-05 12:52 | 51.27936 | 6.75595 | 153 ft | 3 kts | 84° |
| 2026-05-05 12:52 | 51.27950 | 6.75648 | 153 ft | 7 kts | 53° |
| 2026-05-05 12:53 | 51.27988 | 6.75727 | 153 ft | 10 kts | 53° |
| 2026-05-05 12:53 | 51.28038 | 6.75829 | 153 ft | 12 kts | 52° |
| 2026-05-05 12:53 | 51.28098 | 6.75952 | 153 ft | 15 kts | 52° |
| 2026-05-05 12:53 | 51.28152 | 6.76066 | 153 ft | 6 kts | 53° |
| 2026-05-05 12:54 | 51.28203 | 6.76220 | 153 ft | 9 kts | 115° |
| 2026-05-05 12:54 | 51.28151 | 6.76301 | 153 ft | 10 kts | 128° |
| 2026-05-05 12:54 | 51.28126 | 6.76369 | 153 ft | 3 kts | 116° |
| 2026-05-05 12:55 | 51.28118 | 6.76414 | 153 ft | 5 kts | 100° |
| 2026-05-05 12:55 | 51.28112 | 6.76484 | 153 ft | 5 kts | 96° |
| 2026-05-05 12:55 | 51.28110 | 6.76521 | 153 ft | 2 kts | 96° |
| 2026-05-05 12:55 | 51.28109 | 6.76532 | 153 ft | 0 kts | 96° |